sensor_id;sensor_type;location;lat;lon;timestamp;P1;durP1;ratioP1;P2;durP2;ratioP2
38859;SDS011;24609;48.316;16.174;2024-02-23T00:01:06;34.97;;;23.65;;
38859;SDS011;24609;48.316;16.174;2024-02-23T00:03:32;33.15;;;23.58;;
38859;SDS011;24609;48.316;16.174;2024-02-23T00:05:59;33.85;;;22.83;;
38859;SDS011;24609;48.316;16.174;2024-02-23T00:08:25;32.45;;;21.52;;
38859;SDS011;24609;48.316;16.174;2024-02-23T00:10:51;36.88;;;26.75;;
38859;SDS011;24609;48.316;16.174;2024-02-23T00:13:16;33.50;;;23.90;;
38859;SDS011;24609;48.316;16.174;2024-02-23T00:15:42;30.10;;;22.05;;
38859;SDS011;24609;48.316;16.174;2024-02-23T00:18:09;26.55;;;20.70;;
38859;SDS011;24609;48.316;16.174;2024-02-23T00:20:34;32.70;;;22.08;;
38859;SDS011;24609;48.316;16.174;2024-02-23T00:23:01;29.60;;;21.38;;
38859;SDS011;24609;48.316;16.174;2024-02-23T00:25:28;34.83;;;24.80;;
38859;SDS011;24609;48.316;16.174;2024-02-23T00:27:53;32.63;;;24.25;;
38859;SDS011;24609;48.316;16.174;2024-02-23T00:30:19;31.08;;;22.30;;
38859;SDS011;24609;48.316;16.174;2024-02-23T00:32:45;32.13;;;23.73;;
38859;SDS011;24609;48.316;16.174;2024-02-23T00:35:10;28.70;;;22.05;;
38859;SDS011;24609;48.316;16.174;2024-02-23T00:37:36;28.48;;;22.52;;
38859;SDS011;24609;48.316;16.174;2024-02-23T00:40:02;29.63;;;22.80;;
38859;SDS011;24609;48.316;16.174;2024-02-23T00:42:29;33.97;;;23.35;;
38859;SDS011;24609;48.316;16.174;2024-02-23T00:44:55;30.73;;;21.45;;
38859;SDS011;24609;48.316;16.174;2024-02-23T00:47:21;31.58;;;23.23;;
38859;SDS011;24609;48.316;16.174;2024-02-23T00:49:47;28.35;;;22.08;;
38859;SDS011;24609;48.316;16.174;2024-02-23T00:52:14;33.10;;;24.52;;
38859;SDS011;24609;48.316;16.174;2024-02-23T00:54:40;33.65;;;24.25;;
38859;SDS011;24609;48.316;16.174;2024-02-23T00:57:05;35.30;;;24.98;;
38859;SDS011;24609;48.316;16.174;2024-02-23T00:59:31;35.30;;;22.23;;
38859;SDS011;24609;48.316;16.174;2024-02-23T01:01:57;34.10;;;24.13;;
38859;SDS011;24609;48.316;16.174;2024-02-23T01:04:23;32.38;;;23.58;;
38859;SDS011;24609;48.316;16.174;2024-02-23T01:06:49;31.40;;;22.67;;
38859;SDS011;24609;48.316;16.174;2024-02-23T01:09:14;31.90;;;23.17;;
38859;SDS011;24609;48.316;16.174;2024-02-23T01:11:45;29.60;;;21.80;;
38859;SDS011;24609;48.316;16.174;2024-02-23T01:14:13;28.58;;;21.48;;
38859;SDS011;24609;48.316;16.174;2024-02-23T01:16:39;28.67;;;21.63;;
38859;SDS011;24609;48.316;16.174;2024-02-23T01:19:05;27.20;;;20.75;;
38859;SDS011;24609;48.316;16.174;2024-02-23T01:21:31;28.50;;;21.20;;
38859;SDS011;24609;48.316;16.174;2024-02-23T01:23:56;31.80;;;21.75;;
38859;SDS011;24609;48.316;16.174;2024-02-23T01:26:22;34.10;;;23.83;;
38859;SDS011;24609;48.316;16.174;2024-02-23T01:28:48;29.80;;;22.35;;
38859;SDS011;24609;48.316;16.174;2024-02-23T01:31:14;28.60;;;21.65;;
38859;SDS011;24609;48.316;16.174;2024-02-23T01:33:40;31.02;;;23.42;;
38859;SDS011;24609;48.316;16.174;2024-02-23T01:36:06;29.67;;;22.13;;
38859;SDS011;24609;48.316;16.174;2024-02-23T01:38:32;28.77;;;21.90;;
38859;SDS011;24609;48.316;16.174;2024-02-23T01:40:58;28.42;;;21.50;;
38859;SDS011;24609;48.316;16.174;2024-02-23T01:43:24;31.27;;;20.98;;
38859;SDS011;24609;48.316;16.174;2024-02-23T01:45:51;28.15;;;20.63;;
38859;SDS011;24609;48.316;16.174;2024-02-23T01:48:17;27.88;;;21.20;;
38859;SDS011;24609;48.316;16.174;2024-02-23T01:50:43;27.67;;;20.95;;
38859;SDS011;24609;48.316;16.174;2024-02-23T01:53:10;25.50;;;19.38;;
38859;SDS011;24609;48.316;16.174;2024-02-23T01:55:43;29.25;;;20.95;;
38859;SDS011;24609;48.316;16.174;2024-02-23T01:58:11;31.38;;;23.75;;
38859;SDS011;24609;48.316;16.174;2024-02-23T02:00:37;31.63;;;23.02;;
38859;SDS011;24609;48.316;16.174;2024-02-23T02:03:03;28.80;;;21.88;;
38859;SDS011;24609;48.316;16.174;2024-02-23T02:05:29;28.48;;;21.00;;
38859;SDS011;24609;48.316;16.174;2024-02-23T02:07:55;29.48;;;22.05;;
38859;SDS011;24609;48.316;16.174;2024-02-23T02:10:24;27.98;;;21.15;;
38859;SDS011;24609;48.316;16.174;2024-02-23T02:12:51;34.08;;;26.33;;
38859;SDS011;24609;48.316;16.174;2024-02-23T02:15:17;35.65;;;26.35;;
38859;SDS011;24609;48.316;16.174;2024-02-23T02:17:42;35.80;;;26.50;;
38859;SDS011;24609;48.316;16.174;2024-02-23T02:20:11;35.92;;;27.30;;
38859;SDS011;24609;48.316;16.174;2024-02-23T02:22:38;35.05;;;24.58;;
38859;SDS011;24609;48.316;16.174;2024-02-23T02:25:04;33.95;;;24.98;;
38859;SDS011;24609;48.316;16.174;2024-02-23T02:27:31;35.85;;;26.42;;
38859;SDS011;24609;48.316;16.174;2024-02-23T02:29:57;34.30;;;24.40;;
38859;SDS011;24609;48.316;16.174;2024-02-23T02:32:23;33.60;;;23.67;;
38859;SDS011;24609;48.316;16.174;2024-02-23T02:34:49;28.25;;;21.63;;
38859;SDS011;24609;48.316;16.174;2024-02-23T02:37:15;35.65;;;24.02;;
38859;SDS011;24609;48.316;16.174;2024-02-23T02:39:40;32.95;;;24.30;;
38859;SDS011;24609;48.316;16.174;2024-02-23T02:42:06;32.30;;;22.75;;
38859;SDS011;24609;48.316;16.174;2024-02-23T02:44:32;33.00;;;22.23;;
38859;SDS011;24609;48.316;16.174;2024-02-23T02:46:58;34.05;;;24.63;;
38859;SDS011;24609;48.316;16.174;2024-02-23T02:49:24;30.10;;;22.77;;
38859;SDS011;24609;48.316;16.174;2024-02-23T02:51:49;31.52;;;23.17;;
38859;SDS011;24609;48.316;16.174;2024-02-23T02:54:15;35.28;;;25.55;;
38859;SDS011;24609;48.316;16.174;2024-02-23T02:56:44;33.80;;;24.48;;
38859;SDS011;24609;48.316;16.174;2024-02-23T02:59:12;31.35;;;24.20;;
38859;SDS011;24609;48.316;16.174;2024-02-23T03:01:38;29.77;;;23.38;;
38859;SDS011;24609;48.316;16.174;2024-02-23T03:04:05;34.03;;;24.35;;
38859;SDS011;24609;48.316;16.174;2024-02-23T03:06:30;36.78;;;27.00;;
38859;SDS011;24609;48.316;16.174;2024-02-23T03:08:56;35.70;;;25.08;;
38859;SDS011;24609;48.316;16.174;2024-02-23T03:11:22;32.53;;;23.98;;
38859;SDS011;24609;48.316;16.174;2024-02-23T03:13:47;36.28;;;26.50;;
38859;SDS011;24609;48.316;16.174;2024-02-23T03:16:16;39.85;;;28.50;;
38859;SDS011;24609;48.316;16.174;2024-02-23T03:18:43;38.25;;;28.40;;
38859;SDS011;24609;48.316;16.174;2024-02-23T03:21:09;39.65;;;28.92;;
38859;SDS011;24609;48.316;16.174;2024-02-23T03:23:35;39.88;;;28.65;;
38859;SDS011;24609;48.316;16.174;2024-02-23T03:26:01;40.10;;;29.48;;
38859;SDS011;24609;48.316;16.174;2024-02-23T03:28:27;33.88;;;26.00;;
38859;SDS011;24609;48.316;16.174;2024-02-23T03:30:53;38.00;;;26.27;;
38859;SDS011;24609;48.316;16.174;2024-02-23T03:33:19;35.92;;;26.70;;
38859;SDS011;24609;48.316;16.174;2024-02-23T03:35:45;34.85;;;27.85;;
38859;SDS011;24609;48.316;16.174;2024-02-23T03:38:10;31.75;;;23.30;;
38859;SDS011;24609;48.316;16.174;2024-02-23T03:40:36;28.23;;;21.83;;
38859;SDS011;24609;48.316;16.174;2024-02-23T03:43:02;29.10;;;21.98;;
38859;SDS011;24609;48.316;16.174;2024-02-23T03:45:28;29.23;;;22.05;;
38859;SDS011;24609;48.316;16.174;2024-02-23T03:47:54;30.88;;;23.50;;
38859;SDS011;24609;48.316;16.174;2024-02-23T03:50:20;29.70;;;21.77;;
38859;SDS011;24609;48.316;16.174;2024-02-23T03:52:45;27.65;;;21.88;;
38859;SDS011;24609;48.316;16.174;2024-02-23T03:55:11;32.65;;;25.15;;
38859;SDS011;24609;48.316;16.174;2024-02-23T03:57:37;34.80;;;25.70;;
38859;SDS011;24609;48.316;16.174;2024-02-23T04:00:03;39.08;;;26.95;;
38859;SDS011;24609;48.316;16.174;2024-02-23T04:02:31;37.33;;;25.58;;
38859;SDS011;24609;48.316;16.174;2024-02-23T04:04:57;36.17;;;26.88;;
38859;SDS011;24609;48.316;16.174;2024-02-23T04:07:22;37.40;;;29.40;;
38859;SDS011;24609;48.316;16.174;2024-02-23T04:09:48;40.72;;;27.73;;
38859;SDS011;24609;48.316;16.174;2024-02-23T04:12:18;45.63;;;31.67;;
38859;SDS011;24609;48.316;16.174;2024-02-23T04:14:44;38.92;;;26.83;;
38859;SDS011;24609;48.316;16.174;2024-02-23T04:17:10;38.65;;;28.73;;
38859;SDS011;24609;48.316;16.174;2024-02-23T04:19:37;36.20;;;27.20;;
38859;SDS011;24609;48.316;16.174;2024-02-23T04:22:03;34.17;;;25.73;;
38859;SDS011;24609;48.316;16.174;2024-02-23T04:24:33;30.42;;;23.40;;
38859;SDS011;24609;48.316;16.174;2024-02-23T04:26:59;30.50;;;21.90;;
38859;SDS011;24609;48.316;16.174;2024-02-23T04:29:25;23.70;;;18.88;;
38859;SDS011;24609;48.316;16.174;2024-02-23T04:31:52;23.98;;;17.65;;
38859;SDS011;24609;48.316;16.174;2024-02-23T04:34:17;21.13;;;15.70;;
38859;SDS011;24609;48.316;16.174;2024-02-23T04:36:43;17.35;;;13.52;;
38859;SDS011;24609;48.316;16.174;2024-02-23T04:39:08;15.25;;;11.40;;
38859;SDS011;24609;48.316;16.174;2024-02-23T04:41:34;14.13;;;11.05;;
38859;SDS011;24609;48.316;16.174;2024-02-23T04:44:00;12.77;;;9.48;;
38859;SDS011;24609;48.316;16.174;2024-02-23T04:46:26;11.60;;;8.77;;
38859;SDS011;24609;48.316;16.174;2024-02-23T04:48:52;12.07;;;8.25;;
38859;SDS011;24609;48.316;16.174;2024-02-23T04:51:18;8.85;;;7.28;;
38859;SDS011;24609;48.316;16.174;2024-02-23T04:53:44;8.65;;;6.80;;
38859;SDS011;24609;48.316;16.174;2024-02-23T04:56:09;8.00;;;6.15;;
38859;SDS011;24609;48.316;16.174;2024-02-23T04:58:35;6.93;;;5.63;;
38859;SDS011;24609;48.316;16.174;2024-02-23T05:01:02;6.05;;;4.72;;
38859;SDS011;24609;48.316;16.174;2024-02-23T05:03:28;6.43;;;5.13;;
38859;SDS011;24609;48.316;16.174;2024-02-23T05:05:54;5.47;;;3.83;;
38859;SDS011;24609;48.316;16.174;2024-02-23T05:08:20;6.13;;;3.47;;
38859;SDS011;24609;48.316;16.174;2024-02-23T05:10:46;4.47;;;3.60;;
38859;SDS011;24609;48.316;16.174;2024-02-23T05:13:12;4.25;;;3.42;;
38859;SDS011;24609;48.316;16.174;2024-02-23T05:15:38;6.25;;;4.13;;
38859;SDS011;24609;48.316;16.174;2024-02-23T05:18:04;4.90;;;4.05;;
38859;SDS011;24609;48.316;16.174;2024-02-23T05:20:30;5.10;;;4.20;;
38859;SDS011;24609;48.316;16.174;2024-02-23T05:22:56;4.40;;;3.92;;
38859;SDS011;24609;48.316;16.174;2024-02-23T05:25:21;3.95;;;3.50;;
38859;SDS011;24609;48.316;16.174;2024-02-23T05:27:47;5.05;;;4.20;;
38859;SDS011;24609;48.316;16.174;2024-02-23T05:30:13;5.82;;;3.45;;
38859;SDS011;24609;48.316;16.174;2024-02-23T05:32:38;5.55;;;2.92;;
38859;SDS011;24609;48.316;16.174;2024-02-23T05:35:04;4.78;;;2.85;;
38859;SDS011;24609;48.316;16.174;2024-02-23T05:37:30;3.88;;;3.30;;
38859;SDS011;24609;48.316;16.174;2024-02-23T05:39:56;5.93;;;3.90;;
38859;SDS011;24609;48.316;16.174;2024-02-23T05:42:24;5.45;;;3.75;;
38859;SDS011;24609;48.316;16.174;2024-02-23T05:44:51;4.70;;;4.20;;
38859;SDS011;24609;48.316;16.174;2024-02-23T05:47:16;4.60;;;3.40;;
38859;SDS011;24609;48.316;16.174;2024-02-23T05:49:42;4.82;;;4.00;;
38859;SDS011;24609;48.316;16.174;2024-02-23T05:52:08;5.18;;;4.45;;
38859;SDS011;24609;48.316;16.174;2024-02-23T05:54:34;3.95;;;2.70;;
38859;SDS011;24609;48.316;16.174;2024-02-23T05:57:00;2.75;;;2.55;;
38859;SDS011;24609;48.316;16.174;2024-02-23T05:59:26;4.38;;;2.20;;
38859;SDS011;24609;48.316;16.174;2024-02-23T06:01:52;2.80;;;2.17;;
38859;SDS011;24609;48.316;16.174;2024-02-23T06:06:48;3.85;;;2.33;;
38859;SDS011;24609;48.316;16.174;2024-02-23T06:09:13;2.88;;;1.92;;
38859;SDS011;24609;48.316;16.174;2024-02-23T06:11:39;1.85;;;1.70;;
38859;SDS011;24609;48.316;16.174;2024-02-23T06:14:04;3.35;;;2.72;;
38859;SDS011;24609;48.316;16.174;2024-02-23T06:16:30;2.38;;;2.17;;
38859;SDS011;24609;48.316;16.174;2024-02-23T06:18:56;4.65;;;3.20;;
38859;SDS011;24609;48.316;16.174;2024-02-23T06:21:23;2.80;;;2.42;;
38859;SDS011;24609;48.316;16.174;2024-02-23T06:23:48;2.05;;;1.85;;
38859;SDS011;24609;48.316;16.174;2024-02-23T06:26:14;3.17;;;2.13;;
38859;SDS011;24609;48.316;16.174;2024-02-23T06:28:40;2.30;;;1.95;;
38859;SDS011;24609;48.316;16.174;2024-02-23T06:31:08;2.17;;;1.90;;
38859;SDS011;24609;48.316;16.174;2024-02-23T06:33:34;14.18;;;10.25;;
38859;SDS011;24609;48.316;16.174;2024-02-23T06:36:00;13.07;;;9.52;;
38859;SDS011;24609;48.316;16.174;2024-02-23T06:38:25;10.93;;;6.65;;
38859;SDS011;24609;48.316;16.174;2024-02-23T06:40:52;2.83;;;2.20;;
38859;SDS011;24609;48.316;16.174;2024-02-23T06:43:18;2.28;;;2.05;;
38859;SDS011;24609;48.316;16.174;2024-02-23T06:45:44;2.58;;;1.63;;
38859;SDS011;24609;48.316;16.174;2024-02-23T06:48:10;3.95;;;1.70;;
38859;SDS011;24609;48.316;16.174;2024-02-23T06:50:35;2.30;;;1.52;;
38859;SDS011;24609;48.316;16.174;2024-02-23T06:53:01;8.52;;;6.43;;
38859;SDS011;24609;48.316;16.174;2024-02-23T06:55:27;4.38;;;3.70;;
38859;SDS011;24609;48.316;16.174;2024-02-23T06:57:53;9.52;;;5.60;;
38859;SDS011;24609;48.316;16.174;2024-02-23T07:00:22;20.70;;;14.55;;
38859;SDS011;24609;48.316;16.174;2024-02-23T07:02:48;6.22;;;5.18;;
38859;SDS011;24609;48.316;16.174;2024-02-23T07:05:13;5.85;;;5.25;;
38859;SDS011;24609;48.316;16.174;2024-02-23T07:07:39;10.57;;;6.40;;
38859;SDS011;24609;48.316;16.174;2024-02-23T07:10:06;13.18;;;10.65;;
38859;SDS011;24609;48.316;16.174;2024-02-23T07:12:33;8.00;;;6.45;;
38859;SDS011;24609;48.316;16.174;2024-02-23T07:14:58;6.28;;;4.55;;
38859;SDS011;24609;48.316;16.174;2024-02-23T07:17:24;5.32;;;3.22;;
38859;SDS011;24609;48.316;16.174;2024-02-23T07:19:50;4.15;;;3.72;;
38859;SDS011;24609;48.316;16.174;2024-02-23T07:22:16;2.83;;;2.63;;
38859;SDS011;24609;48.316;16.174;2024-02-23T07:24:48;4.97;;;3.60;;
38859;SDS011;24609;48.316;16.174;2024-02-23T07:27:14;3.30;;;1.70;;
38859;SDS011;24609;48.316;16.174;2024-02-23T07:29:40;3.10;;;1.20;;
38859;SDS011;24609;48.316;16.174;2024-02-23T07:32:06;2.72;;;1.30;;
38859;SDS011;24609;48.316;16.174;2024-02-23T07:34:31;3.17;;;1.40;;
38859;SDS011;24609;48.316;16.174;2024-02-23T07:36:57;1.50;;;1.00;;
38859;SDS011;24609;48.316;16.174;2024-02-23T07:39:23;2.55;;;1.38;;
38859;SDS011;24609;48.316;16.174;2024-02-23T07:41:48;1.80;;;1.30;;
38859;SDS011;24609;48.316;16.174;2024-02-23T07:44:15;2.53;;;1.10;;
38859;SDS011;24609;48.316;16.174;2024-02-23T07:46:41;2.35;;;1.00;;
38859;SDS011;24609;48.316;16.174;2024-02-23T07:49:07;1.42;;;0.90;;
38859;SDS011;24609;48.316;16.174;2024-02-23T07:51:32;1.65;;;1.00;;
38859;SDS011;24609;48.316;16.174;2024-02-23T07:53:58;1.33;;;0.82;;
38859;SDS011;24609;48.316;16.174;2024-02-23T07:56:24;3.25;;;2.88;;
38859;SDS011;24609;48.316;16.174;2024-02-23T07:58:49;1.50;;;1.40;;
38859;SDS011;24609;48.316;16.174;2024-02-23T08:01:15;2.30;;;1.50;;
38859;SDS011;24609;48.316;16.174;2024-02-23T08:03:41;2.65;;;1.77;;
38859;SDS011;24609;48.316;16.174;2024-02-23T08:06:06;2.90;;;1.50;;
38859;SDS011;24609;48.316;16.174;2024-02-23T08:08:32;4.80;;;2.00;;
38859;SDS011;24609;48.316;16.174;2024-02-23T08:11:03;3.20;;;2.08;;
38859;SDS011;24609;48.316;16.174;2024-02-23T08:13:28;2.85;;;2.15;;
38859;SDS011;24609;48.316;16.174;2024-02-23T08:15:54;3.60;;;1.60;;
38859;SDS011;24609;48.316;16.174;2024-02-23T08:18:20;5.40;;;2.08;;
38859;SDS011;24609;48.316;16.174;2024-02-23T08:20:47;2.88;;;1.77;;
38859;SDS011;24609;48.316;16.174;2024-02-23T08:23:13;5.53;;;3.83;;
38859;SDS011;24609;48.316;16.174;2024-02-23T08:25:39;10.07;;;6.13;;
38859;SDS011;24609;48.316;16.174;2024-02-23T08:28:05;13.25;;;7.57;;
38859;SDS011;24609;48.316;16.174;2024-02-23T08:30:31;8.18;;;5.05;;
38859;SDS011;24609;48.316;16.174;2024-02-23T08:32:57;8.77;;;5.60;;
38859;SDS011;24609;48.316;16.174;2024-02-23T08:35:22;4.72;;;2.78;;
38859;SDS011;24609;48.316;16.174;2024-02-23T08:37:48;6.85;;;5.53;;
38859;SDS011;24609;48.316;16.174;2024-02-23T08:40:14;3.08;;;1.48;;
38859;SDS011;24609;48.316;16.174;2024-02-23T08:42:40;2.63;;;1.15;;
38859;SDS011;24609;48.316;16.174;2024-02-23T08:45:06;4.80;;;3.70;;
38859;SDS011;24609;48.316;16.174;2024-02-23T08:47:32;10.35;;;6.28;;
38859;SDS011;24609;48.316;16.174;2024-02-23T08:50:00;2.33;;;1.43;;
38859;SDS011;24609;48.316;16.174;2024-02-23T08:52:26;1.75;;;1.10;;
38859;SDS011;24609;48.316;16.174;2024-02-23T08:54:51;4.60;;;1.63;;
38859;SDS011;24609;48.316;16.174;2024-02-23T08:57:17;2.72;;;1.10;;
38859;SDS011;24609;48.316;16.174;2024-02-23T08:59:48;1.85;;;0.80;;
38859;SDS011;24609;48.316;16.174;2024-02-23T09:02:14;1.90;;;0.80;;
38859;SDS011;24609;48.316;16.174;2024-02-23T09:04:40;3.90;;;3.60;;
38859;SDS011;24609;48.316;16.174;2024-02-23T09:07:05;5.18;;;1.75;;
38859;SDS011;24609;48.316;16.174;2024-02-23T09:09:31;3.17;;;1.48;;
38859;SDS011;24609;48.316;16.174;2024-02-23T09:11:57;1.77;;;1.10;;
38859;SDS011;24609;48.316;16.174;2024-02-23T09:14:23;1.42;;;1.13;;
38859;SDS011;24609;48.316;16.174;2024-02-23T09:16:50;1.92;;;1.05;;
38859;SDS011;24609;48.316;16.174;2024-02-23T09:19:16;1.17;;;0.90;;
38859;SDS011;24609;48.316;16.174;2024-02-23T09:21:43;2.28;;;0.90;;
38859;SDS011;24609;48.316;16.174;2024-02-23T09:24:09;3.17;;;1.77;;
38859;SDS011;24609;48.316;16.174;2024-02-23T09:26:35;6.97;;;3.17;;
38859;SDS011;24609;48.316;16.174;2024-02-23T09:29:00;1.90;;;1.58;;
38859;SDS011;24609;48.316;16.174;2024-02-23T09:31:26;1.90;;;1.17;;
38859;SDS011;24609;48.316;16.174;2024-02-23T09:33:53;1.17;;;0.88;;
38859;SDS011;24609;48.316;16.174;2024-02-23T09:36:20;2.17;;;1.20;;
38859;SDS011;24609;48.316;16.174;2024-02-23T09:38:46;1.92;;;1.30;;
38859;SDS011;24609;48.316;16.174;2024-02-23T09:41:19;2.78;;;1.35;;
38859;SDS011;24609;48.316;16.174;2024-02-23T09:43:47;3.10;;;1.65;;
38859;SDS011;24609;48.316;16.174;2024-02-23T09:46:18;3.50;;;2.50;;
38859;SDS011;24609;48.316;16.174;2024-02-23T09:48:44;5.90;;;3.08;;
38859;SDS011;24609;48.316;16.174;2024-02-23T09:51:12;6.57;;;4.22;;
38859;SDS011;24609;48.316;16.174;2024-02-23T09:53:38;6.43;;;4.25;;
38859;SDS011;24609;48.316;16.174;2024-02-23T09:56:05;3.00;;;1.65;;
38859;SDS011;24609;48.316;16.174;2024-02-23T09:58:31;3.72;;;2.55;;
38859;SDS011;24609;48.316;16.174;2024-02-23T10:00:58;6.03;;;3.47;;
38859;SDS011;24609;48.316;16.174;2024-02-23T10:03:25;2.65;;;1.60;;
38859;SDS011;24609;48.316;16.174;2024-02-23T10:05:53;3.08;;;1.73;;
38859;SDS011;24609;48.316;16.174;2024-02-23T10:08:19;3.70;;;1.52;;
38859;SDS011;24609;48.316;16.174;2024-02-23T10:10:45;2.35;;;1.58;;
38859;SDS011;24609;48.316;16.174;2024-02-23T10:13:11;2.00;;;1.20;;
38859;SDS011;24609;48.316;16.174;2024-02-23T10:15:37;1.42;;;1.10;;
38859;SDS011;24609;48.316;16.174;2024-02-23T10:18:03;1.23;;;0.85;;
38859;SDS011;24609;48.316;16.174;2024-02-23T10:20:29;1.77;;;1.13;;
38859;SDS011;24609;48.316;16.174;2024-02-23T10:22:56;1.77;;;0.90;;
38859;SDS011;24609;48.316;16.174;2024-02-23T10:25:22;1.92;;;1.20;;
38859;SDS011;24609;48.316;16.174;2024-02-23T10:27:48;1.42;;;0.90;;
38859;SDS011;24609;48.316;16.174;2024-02-23T10:30:13;2.05;;;1.08;;
38859;SDS011;24609;48.316;16.174;2024-02-23T10:32:42;2.03;;;0.93;;
38859;SDS011;24609;48.316;16.174;2024-02-23T10:35:17;1.67;;;1.02;;
38859;SDS011;24609;48.316;16.174;2024-02-23T10:37:43;3.85;;;1.88;;
38859;SDS011;24609;48.316;16.174;2024-02-23T10:40:12;3.15;;;1.77;;
38859;SDS011;24609;48.316;16.174;2024-02-23T10:42:39;2.85;;;2.22;;
38859;SDS011;24609;48.316;16.174;2024-02-23T10:45:09;3.80;;;2.60;;
38859;SDS011;24609;48.316;16.174;2024-02-23T10:47:35;2.75;;;2.13;;
38859;SDS011;24609;48.316;16.174;2024-02-23T10:50:02;3.40;;;2.42;;
38859;SDS011;24609;48.316;16.174;2024-02-23T10:52:29;3.72;;;2.50;;
38859;SDS011;24609;48.316;16.174;2024-02-23T10:54:57;3.42;;;1.63;;
38859;SDS011;24609;48.316;16.174;2024-02-23T10:57:25;5.13;;;3.47;;
38859;SDS011;24609;48.316;16.174;2024-02-23T10:59:51;2.38;;;1.70;;
38859;SDS011;24609;48.316;16.174;2024-02-23T11:02:18;5.68;;;3.65;;
38859;SDS011;24609;48.316;16.174;2024-02-23T11:04:46;4.10;;;1.58;;
38859;SDS011;24609;48.316;16.174;2024-02-23T11:07:18;1.52;;;1.15;;
38859;SDS011;24609;48.316;16.174;2024-02-23T11:09:49;1.77;;;1.10;;
38859;SDS011;24609;48.316;16.174;2024-02-23T11:12:28;2.22;;;1.17;;
38859;SDS011;24609;48.316;16.174;2024-02-23T11:15:00;3.78;;;1.10;;
38859;SDS011;24609;48.316;16.174;2024-02-23T11:17:27;2.90;;;1.40;;
38859;SDS011;24609;48.316;16.174;2024-02-23T11:19:55;3.27;;;1.40;;
38859;SDS011;24609;48.316;16.174;2024-02-23T11:22:25;2.30;;;1.20;;
38859;SDS011;24609;48.316;16.174;2024-02-23T11:24:51;1.45;;;0.98;;
38859;SDS011;24609;48.316;16.174;2024-02-23T11:27:18;3.33;;;1.90;;
38859;SDS011;24609;48.316;16.174;2024-02-23T11:29:47;6.60;;;3.88;;
38859;SDS011;24609;48.316;16.174;2024-02-23T11:32:16;3.45;;;2.00;;
38859;SDS011;24609;48.316;16.174;2024-02-23T11:34:54;4.60;;;2.00;;
38859;SDS011;24609;48.316;16.174;2024-02-23T11:37:21;3.58;;;1.80;;
38859;SDS011;24609;48.316;16.174;2024-02-23T11:39:47;3.42;;;1.92;;
38859;SDS011;24609;48.316;16.174;2024-02-23T11:42:13;2.28;;;1.90;;
38859;SDS011;24609;48.316;16.174;2024-02-23T11:44:40;2.53;;;2.08;;
38859;SDS011;24609;48.316;16.174;2024-02-23T11:47:06;2.90;;;1.67;;
38859;SDS011;24609;48.316;16.174;2024-02-23T11:49:32;5.22;;;2.88;;
38859;SDS011;24609;48.316;16.174;2024-02-23T11:51:58;4.18;;;2.88;;
38859;SDS011;24609;48.316;16.174;2024-02-23T11:54:24;7.45;;;4.40;;
38859;SDS011;24609;48.316;16.174;2024-02-23T11:56:50;2.42;;;1.40;;
38859;SDS011;24609;48.316;16.174;2024-02-23T11:59:18;3.47;;;1.40;;
38859;SDS011;24609;48.316;16.174;2024-02-23T12:01:45;2.30;;;1.75;;
38859;SDS011;24609;48.316;16.174;2024-02-23T12:04:12;2.00;;;1.73;;
38859;SDS011;24609;48.316;16.174;2024-02-23T12:06:39;2.10;;;1.80;;
38859;SDS011;24609;48.316;16.174;2024-02-23T12:09:05;2.88;;;2.17;;
38859;SDS011;24609;48.316;16.174;2024-02-23T12:11:31;3.67;;;2.60;;
38859;SDS011;24609;48.316;16.174;2024-02-23T12:13:57;2.45;;;2.10;;
38859;SDS011;24609;48.316;16.174;2024-02-23T12:16:23;2.70;;;1.85;;
38859;SDS011;24609;48.316;16.174;2024-02-23T12:18:53;4.22;;;2.20;;
38859;SDS011;24609;48.316;16.174;2024-02-23T12:21:20;4.15;;;1.95;;
38859;SDS011;24609;48.316;16.174;2024-02-23T12:23:48;1.45;;;1.27;;
38859;SDS011;24609;48.316;16.174;2024-02-23T12:26:16;5.88;;;3.38;;
38859;SDS011;24609;48.316;16.174;2024-02-23T12:28:43;3.65;;;2.33;;
38859;SDS011;24609;48.316;16.174;2024-02-23T12:31:09;1.83;;;1.60;;
38859;SDS011;24609;48.316;16.174;2024-02-23T12:33:36;3.58;;;2.35;;
38859;SDS011;24609;48.316;16.174;2024-02-23T12:36:05;2.85;;;2.03;;
38859;SDS011;24609;48.316;16.174;2024-02-23T12:38:31;6.25;;;3.22;;
38859;SDS011;24609;48.316;16.174;2024-02-23T12:40:58;3.08;;;2.33;;
38859;SDS011;24609;48.316;16.174;2024-02-23T12:43:25;2.88;;;2.10;;
38859;SDS011;24609;48.316;16.174;2024-02-23T12:45:52;2.60;;;2.03;;
38859;SDS011;24609;48.316;16.174;2024-02-23T12:48:21;2.47;;;1.65;;
38859;SDS011;24609;48.316;16.174;2024-02-23T12:50:47;3.08;;;2.00;;
38859;SDS011;24609;48.316;16.174;2024-02-23T12:56:02;2.90;;;2.08;;
38859;SDS011;24609;48.316;16.174;2024-02-23T12:58:29;2.28;;;1.83;;
38859;SDS011;24609;48.316;16.174;2024-02-23T13:00:55;3.08;;;1.33;;
38859;SDS011;24609;48.316;16.174;2024-02-23T13:03:22;2.85;;;1.40;;
38859;SDS011;24609;48.316;16.174;2024-02-23T13:05:49;2.30;;;1.80;;
38859;SDS011;24609;48.316;16.174;2024-02-23T13:08:15;1.65;;;1.55;;
38859;SDS011;24609;48.316;16.174;2024-02-23T13:10:41;3.42;;;1.73;;
38859;SDS011;24609;48.316;16.174;2024-02-23T13:13:07;1.73;;;1.00;;
38859;SDS011;24609;48.316;16.174;2024-02-23T13:15:32;2.10;;;1.20;;
38859;SDS011;24609;48.316;16.174;2024-02-23T13:17:58;2.00;;;1.25;;
38859;SDS011;24609;48.316;16.174;2024-02-23T13:20:24;3.03;;;1.20;;
38859;SDS011;24609;48.316;16.174;2024-02-23T13:22:49;3.88;;;1.45;;
38859;SDS011;24609;48.316;16.174;2024-02-23T13:25:15;2.40;;;1.30;;
38859;SDS011;24609;48.316;16.174;2024-02-23T13:27:41;1.77;;;1.40;;
38859;SDS011;24609;48.316;16.174;2024-02-23T13:30:07;2.38;;;1.30;;
38859;SDS011;24609;48.316;16.174;2024-02-23T13:32:33;2.72;;;1.63;;
38859;SDS011;24609;48.316;16.174;2024-02-23T13:34:59;4.32;;;1.80;;
38859;SDS011;24609;48.316;16.174;2024-02-23T13:37:29;2.50;;;1.30;;
38859;SDS011;24609;48.316;16.174;2024-02-23T13:39:54;4.85;;;1.60;;
38859;SDS011;24609;48.316;16.174;2024-02-23T13:42:20;3.53;;;1.50;;
38859;SDS011;24609;48.316;16.174;2024-02-23T13:44:46;3.05;;;1.30;;
38859;SDS011;24609;48.316;16.174;2024-02-23T13:47:12;2.50;;;1.23;;
38859;SDS011;24609;48.316;16.174;2024-02-23T13:49:37;2.50;;;1.10;;
38859;SDS011;24609;48.316;16.174;2024-02-23T13:52:03;2.33;;;1.05;;
38859;SDS011;24609;48.316;16.174;2024-02-23T13:54:29;3.47;;;2.28;;
38859;SDS011;24609;48.316;16.174;2024-02-23T13:56:55;6.70;;;3.30;;
38859;SDS011;24609;48.316;16.174;2024-02-23T13:59:20;5.40;;;3.45;;
38859;SDS011;24609;48.316;16.174;2024-02-23T14:01:46;3.33;;;2.47;;
38859;SDS011;24609;48.316;16.174;2024-02-23T14:04:12;6.28;;;4.57;;
38859;SDS011;24609;48.316;16.174;2024-02-23T14:06:37;2.28;;;1.88;;
38859;SDS011;24609;48.316;16.174;2024-02-23T14:09:03;2.70;;;1.95;;
38859;SDS011;24609;48.316;16.174;2024-02-23T14:11:29;3.20;;;2.05;;
38859;SDS011;24609;48.316;16.174;2024-02-23T14:13:55;3.22;;;1.92;;
38859;SDS011;24609;48.316;16.174;2024-02-23T14:16:22;2.38;;;1.65;;
38859;SDS011;24609;48.316;16.174;2024-02-23T14:18:48;3.25;;;2.10;;
38859;SDS011;24609;48.316;16.174;2024-02-23T14:21:14;4.00;;;2.22;;
38859;SDS011;24609;48.316;16.174;2024-02-23T14:23:41;3.78;;;2.63;;
38859;SDS011;24609;48.316;16.174;2024-02-23T14:26:07;3.25;;;1.95;;